Time;durP1;ratioP1;P1;durP2;ratioP2;P2;SDS_P1;SDS_P2;PMS_P1;PMS_P2;Temp;Humidity;BMP_temperature;BMP_pressure;BME280_temperature;BME280_humidity;BME280_pressure;Samples;Min_cycle;Max_cycle;Signal;HPM_P1;HPM_P2
2023/05/31 00:01:42;;;;;;;;;16.33;15.67;;;;;19.12;50.94;101318.91;4997329;28;46474;-56
2023/05/31 00:04:08;;;;;;;;;18.67;18.67;;;;;19.12;51.30;101316.25;4996975;28;45360;-56
2023/05/31 00:06:33;;;;;;;;;17.67;17.33;;;;;18.98;51.18;101306.41;4997379;28;45421;-57
2023/05/31 00:08:59;;;;;;;;;19.00;18.00;;;;;18.90;51.84;101318.47;4997431;28;45481;-57
2023/05/31 00:11:26;;;;;;;;;17.00;17.00;;;;;18.94;51.79;101322.66;4997112;28;45549;-56
2023/05/31 00:13:52;;;;;;;;;19.00;16.33;;;;;18.93;52.02;101313.81;4997088;28;45451;-54
2023/05/31 00:16:17;;;;;;;;;17.00;16.00;;;;;18.97;51.55;101311.84;4997075;28;45507;-54
2023/05/31 00:18:42;;;;;;;;;17.00;16.00;;;;;18.90;51.51;101311.34;4997095;28;45562;-58
2023/05/31 00:21:08;;;;;;;;;15.67;14.67;;;;;18.85;51.52;101308.06;4996803;28;46525;-57
2023/05/31 00:23:33;;;;;;;;;16.33;15.33;;;;;18.87;51.77;101322.19;4996560;28;50596;-57
2023/05/31 00:25:58;;;;;;;;;17.00;16.00;;;;;18.83;51.67;101325.97;4996740;28;45422;-58
2023/05/31 00:28:23;;;;;;;;;21.67;21.67;;;;;18.79;51.97;101320.91;4995794;28;54269;-53
2023/05/31 00:30:49;;;;;;;;;21.33;19.67;;;;;18.73;52.11;101304.31;4996460;28;55358;-57
2023/05/31 00:33:14;;;;;;;;;20.00;19.67;;;;;18.57;51.85;101294.63;4996878;28;45494;-52
2023/05/31 00:35:39;;;;;;;;;19.67;18.67;;;;;18.64;52.66;101317.28;4996904;28;45858;-58
2023/05/31 00:38:07;;;;;;;;;21.00;20.00;;;;;18.62;52.26;101314.72;4996756;28;45522;-57
2023/05/31 00:40:33;;;;;;;;;18.67;16.67;;;;;18.69;52.22;101320.53;4978763;28;47123;-56
2023/05/31 00:42:58;;;;;;;;;22.00;18.50;;;;;18.66;52.66;101321.59;4996471;28;45456;-54
2023/05/31 00:45:24;;;;;;;;;19.00;19.00;;;;;18.57;52.58;101308.81;4996075;28;45564;-56
2023/05/31 00:47:50;;;;;;;;;22.33;20.33;;;;;18.56;52.53;101309.72;4996673;28;45426;-53
2023/05/31 00:50:16;;;;;;;;;17.33;17.33;;;;;18.53;52.46;101309.91;4996521;28;46665;-57
2023/05/31 00:52:44;;;;;;;;;22.33;22.33;;;;;18.49;52.84;101313.72;4996292;28;45520;-56
2023/05/31 00:55:10;;;;;;;;;19.00;18.00;;;;;18.40;53.08;101311.56;4996369;28;45429;-57
2023/05/31 00:57:36;;;;;;;;;18.67;17.67;;;;;18.37;52.95;101307.25;4995215;28;45407;-55
2023/05/31 01:00:04;;;;;;;;;22.00;22.00;;;;;18.30;53.29;101293.44;4996180;28;46253;-55
2023/05/31 01:02:32;;;;;;;;;20.00;20.00;;;;;18.30;53.34;101298.78;4996280;28;45576;-56
2023/05/31 01:04:57;;;;;;;;;18.33;17.33;;;;;18.33;53.02;101292.41;4987965;28;45472;-56
2023/05/31 01:07:23;;;;;;;;;19.33;18.33;;;;;18.35;53.16;101301.19;4996052;28;45602;-54
2023/05/31 01:09:50;;;;;;;;;18.67;18.67;;;;;18.35;52.99;101289.66;4996073;28;45569;-55
2023/05/31 01:12:41;;;;;;;;;18.00;18.00;;;;;18.27;53.61;101301.63;4996052;28;45538;-55
2023/05/31 01:15:18;;;;;;;;;17.33;17.33;;;;;18.22;53.38;101294.84;4978449;28;45449;-56
2023/05/31 01:18:02;;;;;;;;;22.00;22.00;;;;;18.23;53.40;101292.06;4995908;28;45424;-55
2023/05/31 01:20:34;;;;;;;;;19.00;19.00;;;;;18.30;53.17;101292.59;4978141;28;46396;-56
2023/05/31 01:23:32;;;;;;;;;23.00;19.33;;;;;18.23;53.29;101302.72;4996066;28;45497;-53
2023/05/31 01:26:34;;;;;;;;;18.00;18.00;;;;;18.22;53.59;101290.34;4996049;28;45474;-55
2023/05/31 01:29:03;;;;;;;;;18.00;17.67;;;;;18.21;53.37;101288.63;4978095;28;45395;-57
2023/05/31 01:31:31;;;;;;;;;16.33;16.33;;;;;18.23;53.27;101283.22;4995905;28;46314;-58
2023/05/31 01:33:57;;;;;;;;;21.00;21.00;;;;;18.14;53.83;101281.09;4995879;28;45407;-54
2023/05/31 01:36:23;;;;;;;;;21.67;20.00;;;;;18.09;53.89;101276.88;4995696;28;45520;-56
2023/05/31 01:38:48;;;;;;;;;25.00;19.67;;;;;18.12;53.62;101272.31;4995765;28;45444;-53
2023/05/31 01:41:15;;;;;;;;;22.33;20.33;;;;;18.09;53.63;101262.72;4995544;28;46176;-55
2023/05/31 01:43:43;;;;;;;;;19.33;19.33;;;;;18.10;53.79;101277.72;4995722;28;45399;-52
2023/05/31 01:46:12;;;;;;;;;21.00;19.67;;;;;18.07;53.88;101281.41;4995600;28;45464;-55
2023/05/31 01:48:40;;;;;;;;;20.00;19.00;;;;;18.07;53.62;101269.91;4995565;28;45433;-55
2023/05/31 01:51:09;;;;;;;;;23.00;18.67;;;;;18.12;53.39;101275.84;4995572;28;46075;-58
2023/05/31 01:53:35;;;;;;;;;17.33;17.33;;;;;18.01;53.86;101260.47;4995493;28;45404;-56
2023/05/31 01:56:02;;;;;;;;;25.33;23.00;;;;;17.84;53.85;101240.13;4995691;28;45531;-55
2023/05/31 01:58:30;;;;;;;;;20.00;18.00;;;;;17.99;54.22;101272.16;4994971;28;45458;-57
2023/05/31 02:00:55;;;;;;;;;22.00;18.00;;;;;17.93;53.79;101268.03;4995512;28;45900;-57
2023/05/31 02:03:21;;;;;;;;;19.00;18.33;;;;;17.93;53.92;101264.50;4995106;28;45564;-52
2023/05/31 02:06:00;;;;;;;;;22.33;19.00;;;;;17.91;54.22;101271.72;4977759;28;45452;-55
2023/05/31 02:08:26;;;;;;;;;19.67;19.67;;;;;17.86;54.12;101267.50;4995361;28;45474;-55
2023/05/31 02:10:53;;;;;;;;;21.67;19.33;;;;;17.82;54.10;101273.94;4995254;28;46157;-54
2023/05/31 02:13:19;;;;;;;;;21.00;20.33;;;;;17.83;54.39;101272.13;4995198;28;45395;-54
2023/05/31 02:15:44;;;;;;;;;24.00;21.67;;;;;17.88;54.19;101267.41;4995289;28;45431;-55
2023/05/31 02:18:09;;;;;;;;;18.33;18.33;;;;;17.88;54.17;101264.75;4995242;28;45420;-54
2023/05/31 02:20:35;;;;;;;;;23.67;20.67;;;;;17.84;54.53;101260.56;4995114;28;46133;-56
2023/05/31 02:23:00;;;;;;;;;23.67;21.33;;;;;17.79;54.57;101263.47;4995187;28;45382;-54
2023/05/31 02:25:26;;;;;;;;;25.00;21.67;;;;;17.74;54.28;101254.84;4994967;28;45372;-57
2023/05/31 02:27:52;;;;;;;;;26.67;26.67;;;;;17.74;54.75;101248.66;4995442;28;45626;-52
2023/05/31 02:30:17;;;;;;;;;21.67;19.67;;;;;17.79;54.41;101254.63;4995158;28;45384;-54
2023/05/31 02:32:43;;;;;;;;;19.67;19.67;;;;;17.72;54.62;101247.88;4994947;28;45560;-58
2023/05/31 02:35:10;;;;;;;;;26.00;22.33;;;;;17.75;54.57;101247.72;4995159;28;45424;-57
2023/05/31 02:37:37;;;;;;;;;22.00;21.00;;;;;17.67;54.52;101250.78;4995072;28;45514;-57
2023/05/31 02:40:09;;;;;;;;;18.00;18.00;;;;;17.59;55.23;101247.69;4995008;28;46082;-54
2023/05/31 02:42:36;;;;;;;;;20.67;19.33;;;;;17.64;54.89;101251.81;4994724;28;45537;-58
2023/05/31 02:45:02;;;;;;;;;20.00;18.67;;;;;17.62;54.77;101247.53;4995111;28;45449;-56
2023/05/31 02:47:27;;;;;;;;;23.00;20.00;;;;;17.67;54.63;101251.66;4994957;28;45535;-53
2023/05/31 02:49:52;;;;;;;;;23.67;20.33;;;;;17.63;55.07;101257.25;4994649;28;45384;-58
2023/05/31 02:52:18;;;;;;;;;28.33;24.33;;;;;17.59;55.29;101253.88;4995079;28;45490;-58
2023/05/31 02:54:43;;;;;;;;;22.67;21.67;;;;;17.65;54.85;101255.34;4994950;28;45348;-55
2023/05/31 02:57:09;;;;;;;;;20.00;20.00;;;;;17.57;54.42;101245.13;4995403;28;45364;-55
2023/05/31 02:59:34;;;;;;;;;25.00;21.00;;;;;17.58;54.70;101254.81;4994614;28;46260;-55
2023/05/31 03:01:59;;;;;;;;;18.33;18.33;;;;;17.57;54.65;101261.09;4976986;28;45804;-51
2023/05/31 03:04:25;;;;;;;;;23.00;21.67;;;;;17.57;54.70;101253.13;4994518;28;45428;-52
2023/05/31 03:06:50;;;;;;;;;25.33;24.00;;;;;17.55;54.94;101252.34;4994983;28;45615;-54
2023/05/31 03:09:16;;;;;;;;;21.33;20.33;;;;;17.55;54.66;101247.00;4995921;28;46524;-55
2023/05/31 03:11:45;;;;;;;;;18.00;17.33;;;;;17.53;55.29;101245.38;4980242;28;45738;-51
2023/05/31 03:14:11;;;;;;;;;24.00;20.33;;;;;17.40;55.24;101237.19;4998263;28;45599;-56
2023/05/31 03:16:36;;;;;;;;;24.00;22.67;;;;;17.37;54.97;101235.56;4998033;28;45554;-55
2023/05/31 03:19:02;;;;;;;;;24.33;21.33;;;;;17.33;55.68;101228.69;4997708;28;45539;-55
2023/05/31 03:21:27;;;;;;;;;18.00;18.00;;;;;17.33;55.14;101238.44;4998023;28;45440;-55
2023/05/31 03:23:53;;;;;;;;;21.33;20.33;;;;;17.34;55.61;101235.72;4997153;28;52784;-53
2023/05/31 03:26:18;;;;;;;;;24.33;21.67;;;;;17.30;55.49;101236.84;4998006;28;45464;-57
2023/05/31 03:28:43;;;;;;;;;21.33;20.33;;;;;17.28;55.71;101240.53;4997524;28;45383;-58
2023/05/31 03:31:09;;;;;;;;;22.67;20.00;;;;;17.29;55.46;101234.25;4979774;28;48923;-56
2023/05/31 03:33:35;;;;;;;;;22.00;21.00;;;;;17.31;55.31;101240.34;4997928;28;45404;-56
2023/05/31 03:36:01;;;;;;;;;24.00;23.00;;;;;17.21;55.42;101235.50;4997795;28;45397;-56
2023/05/31 03:38:27;;;;;;;;;23.67;21.00;;;;;17.16;55.78;101242.00;4997495;28;45698;-56
2023/05/31 03:40:53;;;;;;;;;21.67;20.67;;;;;17.18;55.47;101245.44;4997413;28;45456;-56
2023/05/31 03:43:18;;;;;;;;;24.33;22.67;;;;;17.12;55.67;101238.66;4997544;28;45430;-53
2023/05/31 03:45:44;;;;;;;;;21.67;21.00;;;;;17.06;56.03;101230.13;4997645;28;45565;-58
2023/05/31 03:48:09;;;;;;;;;25.00;21.00;;;;;17.06;55.70;101246.09;4997566;28;46157;-56
2023/05/31 03:50:35;;;;;;;;;22.33;20.00;;;;;17.06;55.89;101230.13;4997539;28;45373;-57
2023/05/31 03:53:00;;;;;;;;;22.67;22.67;;;;;17.09;56.03;101253.91;4996373;28;50152;-58
2023/05/31 03:55:25;;;;;;;;;23.67;20.33;;;;;17.12;56.18;101238.66;4997668;28;45674;-52
2023/05/31 03:57:51;;;;;;;;;22.67;21.67;;;;;17.06;56.41;101244.31;4997985;28;45435;-57
2023/05/31 04:00:16;;;;;;;;;22.67;22.67;;;;;17.05;56.51;101255.00;4997435;28;45329;-55
2023/05/31 04:02:42;;;;;;;;;19.33;19.00;;;;;16.99;55.96;101249.06;4997197;28;45543;-53
2023/05/31 04:05:07;;;;;;;;;18.00;18.00;;;;;16.99;56.36;101256.19;4997363;28;45409;-57
2023/05/31 04:07:33;;;;;;;;;26.67;21.67;;;;;16.97;56.41;101255.41;4979446;28;46236;-54
2023/05/31 04:09:58;;;;;;;;;19.67;19.67;;;;;16.97;56.55;101261.56;4997187;28;45453;-56
2023/05/31 04:12:24;;;;;;;;;22.33;22.33;;;;;16.90;56.16;101246.00;4997220;28;45446;-56
2023/05/31 04:14:49;;;;;;;;;23.67;22.33;;;;;16.95;56.08;101252.84;4997120;28;45403;-57
2023/05/31 04:17:15;;;;;;;;;22.67;20.67;;;;;17.01;56.74;101249.00;4996485;28;52261;-55
2023/05/31 04:19:40;;;;;;;;;23.33;22.67;;;;;17.03;55.88;101264.84;4996971;28;45408;-55
2023/05/31 04:22:06;;;;;;;;;21.67;19.67;;;;;17.00;56.07;101263.22;4995895;28;45334;-53
2023/05/31 04:24:32;;;;;;;;;25.00;23.00;;;;;16.99;56.53;101267.66;4996969;28;45477;-55
2023/05/31 04:26:58;;;;;;;;;26.67;23.67;;;;;16.86;56.62;101261.25;4996793;28;46162;-56
2023/05/31 04:29:25;;;;;;;;;18.00;17.33;;;;;16.89;56.10;101269.06;4996648;28;45447;-55
2023/05/31 04:31:51;;;;;;;;;22.67;19.67;;;;;16.94;56.40;101268.84;4997022;28;45451;-54
2023/05/31 04:34:17;;;;;;;;;25.00;22.67;;;;;16.88;56.41;101262.06;4996538;28;45436;-57
2023/05/31 04:36:44;;;;;;;;;21.00;19.33;;;;;16.91;56.63;101271.66;4996687;28;46176;-56
2023/05/31 04:39:14;;;;;;;;;26.00;23.00;;;;;16.97;56.13;101272.19;4996558;28;45426;-55
2023/05/31 04:41:40;;;;;;;;;17.67;16.67;;;;;16.98;56.31;101279.25;4978789;28;45483;-55
2023/05/31 04:44:05;;;;;;;;;19.00;19.00;;;;;17.03;56.48;101272.81;4996509;28;45419;-55
2023/05/31 04:46:32;;;;;;;;;23.00;20.67;;;;;17.07;56.07;101267.28;4996649;28;46090;-57
2023/05/31 04:48:57;;;;;;;;;19.67;19.67;;;;;17.12;56.16;101261.72;4996602;28;45505;-54
2023/05/31 04:51:23;;;;;;;;;25.00;21.67;;;;;17.14;56.33;101266.03;4996533;28;45519;-53
2023/05/31 04:53:48;;;;;;;;;21.33;19.33;;;;;17.11;56.24;101265.31;4996600;28;45381;-57
2023/05/31 04:56:14;;;;;;;;;20.67;19.33;;;;;17.13;55.93;101271.41;4996384;28;46225;-55
2023/05/31 04:58:39;;;;;;;;;20.00;19.33;;;;;17.11;55.65;101265.31;4996873;28;45406;-53
2023/05/31 05:01:06;;;;;;;;;21.33;20.00;;;;;17.15;55.83;101269.53;4996364;28;45444;-58
2023/05/31 05:03:32;;;;;;;;;23.67;22.00;;;;;17.10;55.94;101271.56;4996295;28;45463;-57
2023/05/31 05:06:02;;;;;;;;;24.00;22.67;;;;;17.08;56.16;101281.41;4996150;28;46043;-55
2023/05/31 05:08:27;;;;;;;;;19.67;18.67;;;;;17.06;55.84;101260.25;4996209;28;45377;-55
2023/05/31 05:10:53;;;;;;;;;23.33;20.33;;;;;17.12;55.63;101275.03;4996034;28;45429;-53
2023/05/31 05:13:18;;;;;;;;;20.67;20.67;;;;;17.02;56.04;101257.81;4995326;28;46773;-53
2023/05/31 05:15:44;;;;;;;;;23.00;22.00;;;;;17.05;55.72;101255.00;4995799;28;45552;-56
2023/05/31 05:18:10;;;;;;;;;25.67;22.00;;;;;17.11;55.93;101262.66;4995713;28;45445;-53
2023/05/31 05:20:35;;;;;;;;;23.33;21.67;;;;;17.08;56.29;101261.00;4996070;28;45515;-53
2023/05/31 05:23:06;;;;;;;;;26.00;21.33;;;;;17.09;55.81;101253.91;4995926;28;45376;-57
2023/05/31 05:25:32;;;;;;;;;23.00;23.00;;;;;17.10;55.57;101267.13;4995296;28;46551;-54
2023/05/31 05:27:57;;;;;;;;;18.33;18.33;;;;;17.13;55.57;101258.13;4995751;28;45965;-57
2023/05/31 05:30:23;;;;;;;;;28.00;26.67;;;;;17.16;55.92;101268.59;4996099;28;45376;-52
2023/05/31 05:32:49;;;;;;;;;22.33;21.67;;;;;17.13;55.78;101263.44;4977262;28;45539;-53
2023/05/31 05:35:14;;;;;;;;;21.00;20.00;;;;;17.19;55.42;101271.09;4995896;28;46391;-54
2023/05/31 05:37:39;;;;;;;;;22.33;21.00;;;;;17.08;55.93;101244.22;4995633;28;45490;-55
2023/05/31 05:40:07;;;;;;;;;22.33;20.00;;;;;17.20;55.72;101262.19;4995950;28;45380;-56
2023/05/31 05:42:32;;;;;;;;;21.00;21.00;;;;;17.17;55.60;101265.88;4978364;28;45537;-55
2023/05/31 05:44:57;;;;;;;;;24.67;23.00;;;;;17.12;55.71;101261.72;4995530;28;45862;-52
2023/05/31 05:47:23;;;;;;;;;18.33;18.33;;;;;17.16;55.53;101263.28;4995889;28;45381;-57
2023/05/31 05:49:48;;;;;;;;;18.00;17.33;;;;;17.26;55.20;101266.31;4995565;28;45432;-52
2023/05/31 05:52:14;;;;;;;;;22.67;22.00;;;;;17.23;55.52;101283.28;4995744;28;45619;-55
2023/05/31 05:54:39;;;;;;;;;21.33;19.67;;;;;17.20;55.77;101276.34;4995522;28;46102;-55
2023/05/31 05:57:06;;;;;;;;;25.00;19.00;;;;;17.27;55.36;101281.31;4996085;28;45455;-58
2023/05/31 05:59:31;;;;;;;;;21.00;21.00;;;;;17.29;55.41;101267.00;4995551;28;45553;-57
2023/05/31 06:01:56;;;;;;;;;23.00;22.00;;;;;17.33;55.34;101273.91;4995686;28;45447;-55
2023/05/31 06:04:21;;;;;;;;;21.67;20.33;;;;;17.29;55.46;101253.72;4995048;28;52072;-57
2023/05/31 06:06:47;;;;;;;;;21.00;19.00;;;;;17.39;55.20;101262.94;4995325;28;45391;-58
2023/05/31 06:09:12;;;;;;;;;20.67;17.33;;;;;17.44;54.87;101268.00;4995322;28;47020;-54
2023/05/31 06:11:37;;;;;;;;;23.00;17.67;;;;;17.27;54.87;101233.47;4995421;28;45509;-55
2023/05/31 06:14:03;;;;;;;;;22.33;18.67;;;;;17.42;54.70;101265.41;4994768;28;60941;-58
2023/05/31 06:16:28;;;;;;;;;21.00;21.00;;;;;17.44;55.00;101266.19;4995456;28;45401;-58
2023/05/31 06:18:53;;;;;;;;;18.67;18.67;;;;;17.43;54.84;101266.28;4995172;28;45448;-54
2023/05/31 06:21:19;;;;;;;;;20.67;19.33;;;;;17.42;54.48;101256.59;4995144;28;48490;-56
2023/05/31 06:23:44;;;;;;;;;19.33;18.00;;;;;17.52;54.51;101264.94;4994659;28;45566;-56
2023/05/31 06:26:10;;;;;;;;;19.33;18.67;;;;;17.57;54.97;101266.41;4995115;28;45393;-56
2023/05/31 06:28:36;;;;;;;;;22.00;17.67;;;;;17.63;54.45;101262.56;4995169;28;45436;-58
2023/05/31 06:31:02;;;;;;;;;20.00;18.67;;;;;17.65;54.46;101264.19;4994986;28;45591;-57
2023/05/31 06:33:28;;;;;;;;;22.00;17.33;;;;;17.65;54.19;101258.00;4994780;28;45633;-58
2023/05/31 06:35:53;;;;;;;;;16.67;16.00;;;;;17.73;54.56;101260.25;4994760;28;45466;-57
2023/05/31 06:38:21;;;;;;;;;19.67;18.33;;;;;17.78;53.75;101261.69;4995203;28;45872;-56
2023/05/31 06:40:46;;;;;;;;;21.33;21.00;;;;;17.78;53.65;101263.50;4995018;28;45447;-55
2023/05/31 06:43:13;;;;;;;;;19.00;17.67;;;;;17.79;53.81;101267.94;4995006;28;45512;-56
2023/05/31 06:45:41;;;;;;;;;20.00;20.00;;;;;17.76;53.80;101262.72;4998290;28;45410;-56
2023/05/31 06:48:07;;;;;;;;;21.00;17.00;;;;;17.81;53.90;101266.91;4980839;28;45496;-57
2023/05/31 06:50:33;;;;;;;;;18.00;17.33;;;;;17.78;53.50;101259.03;4998433;28;45479;-56
2023/05/31 06:52:59;;;;;;;;;16.67;16.00;;;;;17.75;53.42;101253.03;4997948;28;45535;-55
2023/05/31 06:55:24;;;;;;;;;15.67;15.00;;;;;17.84;53.66;101257.91;4998408;28;45515;-57
2023/05/31 06:57:50;;;;;;;;;22.00;20.00;;;;;17.90;53.40;101262.03;4981220;28;45460;-54
2023/05/31 07:00:16;;;;;;;;;18.33;17.33;;;;;17.96;53.12;101257.19;4998155;28;45449;-55
2023/05/31 07:02:41;;;;;;;;;23.67;23.67;;;;;17.91;53.06;101230.00;4997874;28;46610;-56
2023/05/31 07:05:07;;;;;;;;;17.00;16.00;;;;;18.08;53.22;101252.97;4998109;28;47256;-54
2023/05/31 07:07:32;;;;;;;;;14.00;12.67;;;;;18.08;52.85;101252.97;4998151;28;45511;-56
2023/05/31 07:09:57;;;;;;;;;19.67;17.67;;;;;18.14;52.60;101263.31;4997906;28;47021;-55
2023/05/31 07:12:23;;;;;;;;;16.00;15.00;;;;;18.13;52.59;101258.91;4997709;28;46066;-56
2023/05/31 07:14:48;;;;;;;;;19.33;18.00;;;;;18.17;52.69;101252.47;4997982;28;45634;-55
2023/05/31 07:17:13;;;;;;;;;19.67;18.00;;;;;18.25;52.30;101254.72;4997942;28;45491;-56
2023/05/31 07:19:49;;;;;;;;;21.33;17.67;;;;;18.25;52.25;101252.06;4998136;28;45461;-54
2023/05/31 07:22:15;;;;;;;;;16.00;14.33;;;;;18.33;51.91;101247.16;4997636;28;45441;-53
2023/05/31 07:24:42;;;;;;;;;16.33;16.33;;;;;18.45;51.67;101258.88;4997548;28;45400;-55
2023/05/31 07:27:08;;;;;;;;;20.67;19.00;;;;;18.43;51.49;101243.00;4997800;28;45476;-54
2023/05/31 07:29:34;;;;;;;;;16.00;16.00;;;;;18.51;51.67;101254.06;4997582;28;45440;-56
2023/05/31 07:31:59;;;;;;;;;14.67;14.67;;;;;18.52;51.64;101246.94;4997502;28;46449;-57
2023/05/31 07:34:25;;;;;;;;;15.67;14.00;;;;;18.54;51.86;101232.59;4997431;28;45519;-55
2023/05/31 07:36:50;;;;;;;;;20.00;17.67;;;;;18.64;51.25;101246.19;4997839;28;46037;-57
2023/05/31 07:39:16;;;;;;;;;19.67;19.67;;;;;18.66;51.26;101240.78;4997688;28;45547;-54
2023/05/31 07:41:42;;;;;;;;;17.67;16.00;;;;;18.59;50.75;101235.00;4997289;28;46248;-58
2023/05/31 07:44:08;;;;;;;;;15.00;15.00;;;;;18.57;50.95;101234.22;4997105;28;45379;-55
2023/05/31 07:46:34;;;;;;;;;20.33;17.67;;;;;18.59;51.45;101226.09;4997471;28;45433;-52
2023/05/31 07:48:59;;;;;;;;;15.00;14.00;;;;;18.68;51.54;101242.44;4997527;28;45518;-56
2023/05/31 07:51:25;;;;;;;;;14.67;12.33;;;;;18.74;51.65;101241.19;4979306;28;48389;-55
2023/05/31 07:53:51;;;;;;;;;13.67;13.67;;;;;18.77;51.56;101238.38;4979551;28;45389;-58
2023/05/31 07:56:16;;;;;;;;;16.00;15.00;;;;;18.80;51.42;101238.19;4995958;28;45376;-55
2023/05/31 07:58:41;;;;;;;;;18.00;17.33;;;;;18.84;51.20;101234.41;4997806;28;45624;-54
2023/05/31 08:01:07;;;;;;;;;21.00;16.00;;;;;18.79;50.82;101236.50;4996585;28;53748;-57
2023/05/31 08:03:32;;;;;;;;;17.33;14.67;;;;;18.75;50.96;101230.50;4996888;28;45562;-56
2023/05/31 08:05:57;;;;;;;;;14.67;14.67;;;;;18.86;51.12;101235.19;4997247;28;45964;-56
2023/05/31 08:08:23;;;;;;;;;17.67;17.00;;;;;18.90;50.71;101226.03;4997000;28;45591;-53
2023/05/31 08:10:49;;;;;;;;;15.33;15.33;;;;;18.90;50.87;101218.03;4997106;28;45618;-55
2023/05/31 08:13:14;;;;;;;;;14.67;14.33;;;;;18.97;50.35;101218.53;4996872;28;45483;-54
2023/05/31 08:15:39;;;;;;;;;12.67;12.00;;;;;18.96;50.50;101212.31;4996525;28;58809;-52
2023/05/31 08:18:05;;;;;;;;;13.00;12.00;;;;;19.09;50.19;101231.13;4996971;28;45531;-58
2023/05/31 08:20:30;;;;;;;;;10.33;10.33;;;;;19.12;49.83;101222.91;4996531;28;46157;-56
2023/05/31 08:22:56;;;;;;;;;15.00;14.00;;;;;19.14;49.41;101218.34;4996879;28;45493;-56
2023/05/31 08:25:22;;;;;;;;;12.33;12.33;;;;;19.20;49.20;101219.78;4996473;28;51098;-53
2023/05/31 08:27:47;;;;;;;;;15.00;14.00;;;;;19.25;48.91;101219.50;4997183;28;45360;-54
2023/05/31 08:30:13;;;;;;;;;16.33;14.33;;;;;19.26;49.56;101210.53;4978907;28;46943;-55
2023/05/31 08:32:40;;;;;;;;;14.67;13.33;;;;;19.34;49.12;101218.94;4996636;28;45499;-51
2023/05/31 08:35:06;;;;;;;;;11.67;11.67;;;;;19.38;48.97;101209.78;4979206;28;45356;-55
2023/05/31 08:37:32;;;;;;;;;13.33;11.00;;;;;19.36;48.81;101193.03;4996462;28;45467;-55
2023/05/31 08:39:57;;;;;;;;;10.00;9.00;;;;;19.46;48.41;101209.31;4996614;28;45634;-53
2023/05/31 08:42:30;;;;;;;;;12.00;10.33;;;;;19.45;49.28;101200.47;4995770;28;45471;-56
2023/05/31 08:44:56;;;;;;;;;9.33;9.00;;;;;19.53;48.76;101207.97;4996685;28;45412;-55
2023/05/31 08:47:31;;;;;;;;;11.00;11.00;;;;;19.58;48.65;101209.38;4996504;28;45567;-53
2023/05/31 08:49:59;;;;;;;;;14.00;14.00;;;;;19.57;48.70;101202.34;4996568;28;45641;-55
2023/05/31 08:52:25;;;;;;;;;11.33;10.67;;;;;19.62;48.81;101205.56;4996180;28;45520;-53
2023/05/31 08:54:53;;;;;;;;;12.00;11.00;;;;;19.67;48.88;101191.97;4996022;28;45423;-51
2023/05/31 08:57:19;;;;;;;;;13.67;12.00;;;;;19.71;48.51;101193.47;4996999;28;45615;-55
2023/05/31 08:59:45;;;;;;;;;12.00;12.00;;;;;19.76;47.70;101196.72;4996037;28;45735;-50
2023/05/31 09:02:14;;;;;;;;;12.00;9.33;;;;;19.77;48.25;101186.88;4996159;28;45447;-56
2023/05/31 09:04:40;;;;;;;;;15.33;13.00;;;;;19.80;47.81;101190.25;4996164;28;45459;-55
2023/05/31 09:07:05;;;;;;;;;16.67;13.67;;;;;19.82;48.26;101182.97;4995977;28;45559;-56
2023/05/31 09:09:30;;;;;;;;;14.00;14.00;;;;;19.86;48.05;101179.16;4996012;28;46579;-56
2023/05/31 09:11:56;;;;;;;;;11.00;10.33;;;;;19.83;48.07;101175.84;4995795;28;49922;-55
2023/05/31 09:14:23;;;;;;;;;11.00;9.67;;;;;19.92;47.88;101183.25;4996392;28;45510;-51
2023/05/31 09:16:50;;;;;;;;;14.33;13.00;;;;;19.97;47.46;101183.78;4996200;28;45546;-56
2023/05/31 09:19:15;;;;;;;;;10.33;10.33;;;;;19.97;47.46;101185.63;4995878;28;46435;-57
2023/05/31 09:21:44;;;;;;;;;10.33;10.33;;;;;19.99;47.48;101179.22;4996033;28;45416;-54
2023/05/31 09:24:12;;;;;;;;;13.33;11.33;;;;;20.05;47.87;101184.16;4995751;28;45574;-54
2023/05/31 09:26:51;;;;;;;;;5.67;4.33;;;;;20.08;47.39;101183.94;4996193;28;45364;-53
2023/05/31 09:29:17;;;;;;;;;12.67;11.00;;;;;20.11;47.72;101180.22;4995896;28;46617;-52
2023/05/31 09:31:44;;;;;;;;;9.67;9.33;;;;;20.08;47.42;101175.06;4994612;28;45418;-56
2023/05/31 09:34:27;;;;;;;;;10.33;10.33;;;;;20.14;47.19;101160.47;4996004;28;45413;-57
2023/05/31 09:36:57;;;;;;;;;9.00;9.00;;;;;20.20;47.38;101165.38;4996180;28;45428;-56
2023/05/31 09:39:23;;;;;;;;;14.67;13.33;;;;;20.23;47.39;101159.84;4995553;28;46353;-56
2023/05/31 09:41:51;;;;;;;;;10.67;10.67;;;;;20.27;47.71;101166.69;4995583;28;45519;-58
2023/05/31 09:44:17;;;;;;;;;9.67;9.67;;;;;20.30;47.53;101163.81;4995991;28;45545;-58
2023/05/31 09:46:46;;;;;;;;;11.67;10.00;;;;;20.30;47.20;101151.31;4995682;28;45628;-53
2023/05/31 09:49:12;;;;;;;;;11.00;10.00;;;;;20.37;47.46;101148.25;4977660;28;46386;-55
2023/05/31 09:51:38;;;;;;;;;11.67;11.67;;;;;20.42;47.77;101148.78;4995388;28;45389;-53
2023/05/31 09:54:10;;;;;;;;;11.67;10.00;;;;;20.48;47.13;101159.06;4995470;28;45401;-55
2023/05/31 09:56:37;;;;;;;;;9.33;9.33;;;;;20.51;46.97;101149.00;4995408;28;45499;-54
2023/05/31 09:59:04;;;;;;;;;10.67;10.33;;;;;20.54;47.23;101141.78;4995660;28;46488;-52
2023/05/31 10:01:30;;;;;;;;;10.33;10.33;;;;;20.61;46.59;101145.75;4995270;28;45420;-55
2023/05/31 10:03:59;;;;;;;;;10.67;10.00;;;;;20.65;47.57;101150.75;4995149;28;45448;-58
2023/05/31 10:06:24;;;;;;;;;11.33;11.33;;;;;20.67;45.92;101148.84;4976985;28;45365;-58
2023/05/31 10:08:50;;;;;;;;;10.00;9.00;;;;;20.70;45.40;101137.94;4995057;28;45435;-53
2023/05/31 10:11:26;;;;;;;;;9.00;9.00;;;;;20.74;45.69;101143.94;4994856;28;45419;-56
2023/05/31 10:13:58;;;;;;;;;11.33;10.33;;;;;20.76;45.18;101138.47;4993720;28;45449;-54
2023/05/31 10:16:26;;;;;;;;;15.00;13.67;;;;;20.75;44.99;101126.94;4977289;28;45546;-56
2023/05/31 10:18:57;;;;;;;;;7.67;7.67;;;;;20.82;45.32;101130.91;4995437;28;45546;-55
2023/05/31 10:21:25;;;;;;;;;9.00;9.00;;;;;20.86;45.17;101135.06;4997331;28;45508;-58
2023/05/31 10:24:02;;;;;;;;;9.00;7.00;;;;;20.85;45.05;101122.66;4980488;28;45499;-56
2023/05/31 10:26:37;;;;;;;;;7.00;7.00;;;;;20.93;45.39;101116.78;4998402;28;45389;-54
2023/05/31 10:29:14;;;;;;;;;9.67;9.67;;;;;20.99;45.49;101119.00;4998007;28;45566;-55
2023/05/31 10:31:49;;;;;;;;;8.00;8.00;;;;;21.00;45.19;101114.50;4998045;28;45427;-53
2023/05/31 10:34:23;;;;;;;;;11.33;8.00;;;;;21.03;44.55;101115.13;4996516;28;45419;-55
2023/05/31 10:36:51;;;;;;;;;7.33;7.33;;;;;21.08;43.42;101112.13;4998183;28;45418;-54
2023/05/31 10:39:28;;;;;;;;;8.33;8.00;;;;;21.12;43.16;101116.31;4997258;28;45423;-55
2023/05/31 10:42:20;;;;;;;;;8.00;8.00;;;;;21.13;43.47;101112.66;4998015;28;45544;-56
2023/05/31 10:44:58;;;;;;;;;11.67;10.33;;;;;21.22;43.83;101109.31;4998175;28;45404;-52
2023/05/31 10:47:36;;;;;;;;;9.00;9.00;;;;;21.29;43.86;101112.44;4997919;28;45599;-53
2023/05/31 10:50:03;;;;;;;;;5.00;5.00;;;;;21.33;43.85;101114.78;4985745;28;45616;-55
2023/05/31 10:52:31;;;;;;;;;14.00;13.00;;;;;21.32;43.12;101109.53;4997869;28;45436;-56
2023/05/31 10:55:17;;;;;;;;;13.00;10.33;;;;;21.35;42.90;101102.13;4998078;28;45365;-56
2023/05/31 10:57:42;;;;;;;;;9.00;8.33;;;;;21.35;43.23;101103.94;4998353;28;45589;-56
2023/05/31 11:00:11;;;;;;;;;8.67;8.67;;;;;21.42;43.08;101107.94;4997546;28;46561;-55
2023/05/31 11:02:45;;;;;;;;;9.33;8.67;;;;;21.46;43.34;101103.19;4997370;28;45412;-56
2023/05/31 11:05:30;;;;;;;;;9.00;7.00;;;;;21.57;42.87;101111.28;4997915;28;45464;-54
2023/05/31 11:07:57;;;;;;;;;11.67;11.67;;;;;21.62;42.75;101103.78;4996732;28;45509;-56
2023/05/31 11:10:26;;;;;;;;;11.00;10.33;;;;;21.65;42.74;101106.22;4996854;28;46573;-58
2023/05/31 11:12:52;;;;;;;;;11.00;8.00;;;;;21.51;43.15;101066.25;4997316;28;45370;-56